DAL9366 KSLC-KLAX
Flight info
| Callsign | DAL9366 |
|---|---|
| Flight time | 1h 33m |
| Altitude | 38000 |
| Route | WINEN LAKRR HAKMN ANJLL4 |
| Aircraft | A20N/M-SDE2E3FGHIRWXY/LB1 |
Departure
| Time | 2026-04-21 23:26 |
|---|---|
| Airport | Salt Lake City International Airport (KSLC) |
Arrival
| Time | 2026-04-22 00:59 |
|---|---|
| Airport | Los Angeles International Airport (KLAX) |
| Time | Latitude | Longitude | Altitude | Speed | Heading |
|---|---|---|---|---|---|
| 2026-04-21 23:00 | 40.78827 | -111.98771 | 4229 ft | 0 kts | 6° |
| 2026-04-21 23:16 | 40.78811 | -111.98773 | 4229 ft | 2 kts | 6° |
| 2026-04-21 23:17 | 40.78794 | -111.98776 | 4229 ft | 2 kts | 6° |
| 2026-04-21 23:17 | 40.78776 | -111.98778 | 4229 ft | 3 kts | 5° |
| 2026-04-21 23:17 | 40.78757 | -111.98784 | 4230 ft | 3 kts | 47° |
| 2026-04-21 23:17 | 40.78749 | -111.98796 | 4230 ft | 0 kts | 70° |
| 2026-04-21 23:19 | 40.78749 | -111.98795 | 4230 ft | 1 kts | 70° |
| 2026-04-21 23:20 | 40.78760 | -111.98684 | 4229 ft | 25 kts | 84° |
| 2026-04-21 23:20 | 40.78776 | -111.98394 | 4232 ft | 36 kts | 84° |
| 2026-04-21 23:20 | 40.78801 | -111.98038 | 4232 ft | 40 kts | 84° |
| 2026-04-21 23:20 | 40.78840 | -111.97700 | 4232 ft | 33 kts | 63° |
| 2026-04-21 23:21 | 40.78925 | -111.97693 | 4234 ft | 12 kts | 333° |
| 2026-04-21 23:21 | 40.79061 | -111.97714 | 4233 ft | 29 kts | 355° |
| 2026-04-21 23:21 | 40.79306 | -111.97748 | 4229 ft | 38 kts | 353° |
| 2026-04-21 23:21 | 40.79576 | -111.97785 | 4227 ft | 40 kts | 354° |
| 2026-04-21 23:22 | 40.79849 | -111.97820 | 4230 ft | 39 kts | 355° |
| 2026-04-21 23:22 | 40.80116 | -111.97849 | 4235 ft | 38 kts | 355° |
| 2026-04-21 23:22 | 40.80378 | -111.97881 | 4236 ft | 38 kts | 354° |
| 2026-04-21 23:22 | 40.80650 | -111.97900 | 4232 ft | 39 kts | 355° |
| 2026-04-21 23:23 | 40.80730 | -111.97877 | 4230 ft | 12 kts | 43° |
| 2026-04-21 23:23 | 40.80739 | -111.97855 | 4230 ft | 1 kts | 65° |
| 2026-04-21 23:23 | 40.80746 | -111.97807 | 4229 ft | 14 kts | 84° |
| 2026-04-21 23:23 | 40.80648 | -111.97684 | 4229 ft | 17 kts | 172° |
| 2026-04-21 23:24 | 40.80626 | -111.97680 | 4230 ft | 0 kts | 172° |
| 2026-04-21 23:24 | 40.80622 | -111.97679 | 4230 ft | 6 kts | 172° |
| 2026-04-21 23:24 | 40.80514 | -111.97662 | 4235 ft | 14 kts | 174° |
| 2026-04-21 23:25 | 40.80476 | -111.97659 | 4236 ft | 27 kts | 176° |
| 2026-04-21 23:25 | 40.80001 | -111.97608 | 4233 ft | 106 kts | 174° |
| 2026-04-21 23:25 | 40.79057 | -111.97507 | 4255 ft | 163 kts | 178° |
| 2026-04-21 23:25 | 40.77859 | -111.97371 | 4758 ft | 179 kts | 178° |
| 2026-04-21 23:26 | 40.76549 | -111.97195 | 5373 ft | 204 kts | 175° |
| 2026-04-21 23:26 | 40.75064 | -111.96992 | 6193 ft | 222 kts | 175° |
| 2026-04-21 23:26 | 40.73500 | -111.96822 | 6715 ft | 235 kts | 175° |
| 2026-04-21 23:26 | 40.71794 | -111.96642 | 6889 ft | 258 kts | 176° |
| 2026-04-21 23:27 | 40.69952 | -111.96443 | 7279 ft | 270 kts | 176° |
| 2026-04-21 23:27 | 40.68104 | -111.96228 | 8301 ft | 265 kts | 176° |
| 2026-04-21 23:27 | 40.66260 | -111.96016 | 9111 ft | 269 kts | 176° |
| 2026-04-21 23:27 | 40.64376 | -111.95799 | 9921 ft | 273 kts | 176° |
| 2026-04-21 23:28 | 40.62444 | -111.95576 | 10444 ft | 289 kts | 176° |
| 2026-04-21 23:28 | 40.60355 | -111.95412 | 10697 ft | 312 kts | 184° |
| 2026-04-21 23:28 | 40.58199 | -111.96021 | 11215 ft | 322 kts | 202° |
| 2026-04-21 23:28 | 40.56153 | -111.97236 | 12054 ft | 324 kts | 203° |
| 2026-04-21 23:29 | 40.54102 | -111.98464 | 12932 ft | 325 kts | 202° |
| 2026-04-21 23:29 | 40.52038 | -111.99703 | 13760 ft | 327 kts | 202° |
| 2026-04-21 23:29 | 40.49963 | -112.00953 | 14539 ft | 329 kts | 202° |
| 2026-04-21 23:29 | 40.47878 | -112.02212 | 15256 ft | 331 kts | 202° |
| 2026-04-21 23:30 | 40.45784 | -112.03476 | 16045 ft | 333 kts | 202° |
| 2026-04-21 23:30 | 40.43669 | -112.04756 | 16745 ft | 336 kts | 202° |
| 2026-04-21 23:30 | 40.41537 | -112.06044 | 17479 ft | 338 kts | 202° |
| 2026-04-21 23:30 | 40.39388 | -112.07341 | 18185 ft | 341 kts | 202° |
| 2026-04-21 23:31 | 40.37222 | -112.08645 | 18815 ft | 344 kts | 202° |
| 2026-04-21 23:31 | 40.35039 | -112.09958 | 19432 ft | 347 kts | 203° |
| 2026-04-21 23:31 | 40.32839 | -112.11281 | 20046 ft | 349 kts | 203° |
| 2026-04-21 23:31 | 40.30623 | -112.12613 | 20674 ft | 351 kts | 203° |
| 2026-04-21 23:32 | 40.28391 | -112.13952 | 21313 ft | 354 kts | 204° |
| 2026-04-21 23:32 | 40.26143 | -112.15300 | 21921 ft | 357 kts | 204° |
| 2026-04-21 23:32 | 40.23873 | -112.16661 | 22477 ft | 361 kts | 204° |
| 2026-04-21 23:32 | 40.21585 | -112.18031 | 23045 ft | 364 kts | 204° |
| 2026-04-21 23:33 | 40.19259 | -112.19423 | 23488 ft | 369 kts | 204° |
| 2026-04-21 23:33 | 40.16920 | -112.20823 | 24016 ft | 371 kts | 204° |
| 2026-04-21 23:33 | 40.14566 | -112.22232 | 24493 ft | 373 kts | 204° |
| 2026-04-21 23:33 | 40.12197 | -112.23648 | 24955 ft | 376 kts | 204° |
| 2026-04-21 23:34 | 40.09813 | -112.25072 | 25419 ft | 378 kts | 204° |
| 2026-04-21 23:34 | 40.07413 | -112.26504 | 25862 ft | 380 kts | 204° |
| 2026-04-21 23:34 | 40.04996 | -112.27945 | 26302 ft | 383 kts | 204° |
| 2026-04-21 23:34 | 40.02564 | -112.29395 | 26717 ft | 386 kts | 204° |
| 2026-04-21 23:35 | 40.00118 | -112.30851 | 27154 ft | 387 kts | 204° |
| 2026-04-21 23:35 | 39.97658 | -112.32314 | 27544 ft | 390 kts | 204° |
| 2026-04-21 23:35 | 39.95181 | -112.33787 | 27935 ft | 392 kts | 204° |
| 2026-04-21 23:35 | 39.92693 | -112.35264 | 28335 ft | 394 kts | 204° |
| 2026-04-21 23:36 | 39.90186 | -112.36752 | 28703 ft | 397 kts | 204° |
| 2026-04-21 23:36 | 39.87669 | -112.38246 | 29067 ft | 399 kts | 204° |
| 2026-04-21 23:36 | 39.85136 | -112.39749 | 29413 ft | 401 kts | 204° |
| 2026-04-21 23:36 | 39.82587 | -112.41258 | 29799 ft | 403 kts | 204° |
| 2026-04-21 23:37 | 39.80058 | -112.42752 | 30106 ft | 405 kts | 204° |
| 2026-04-21 23:37 | 39.77449 | -112.44294 | 30426 ft | 407 kts | 204° |
| 2026-04-21 23:37 | 39.74900 | -112.45799 | 30754 ft | 409 kts | 204° |
| 2026-04-21 23:37 | 39.72314 | -112.47322 | 31229 ft | 406 kts | 204° |
| 2026-04-21 23:38 | 39.69754 | -112.48831 | 31739 ft | 403 kts | 204° |
| 2026-04-21 23:38 | 39.67206 | -112.50333 | 32159 ft | 402 kts | 204° |
| 2026-04-21 23:38 | 39.64656 | -112.51834 | 32552 ft | 402 kts | 204° |
| 2026-04-21 23:38 | 39.62115 | -112.53329 | 32934 ft | 401 kts | 204° |
| 2026-04-21 23:39 | 39.59576 | -112.54822 | 33323 ft | 400 kts | 204° |
| 2026-04-21 23:39 | 39.57046 | -112.56308 | 33710 ft | 399 kts | 205° |
| 2026-04-21 23:39 | 39.54510 | -112.57796 | 33913 ft | 402 kts | 205° |
| 2026-04-21 23:39 | 39.51958 | -112.59292 | 34169 ft | 401 kts | 204° |
| 2026-04-21 23:40 | 39.49428 | -112.60772 | 34601 ft | 397 kts | 205° |
| 2026-04-21 23:40 | 39.46912 | -112.62244 | 34917 ft | 396 kts | 205° |
| 2026-04-21 23:40 | 39.44403 | -112.63711 | 35177 ft | 396 kts | 205° |
| 2026-04-21 23:40 | 39.41896 | -112.65177 | 35424 ft | 396 kts | 205° |
| 2026-04-21 23:41 | 39.39387 | -112.66642 | 35670 ft | 395 kts | 205° |
| 2026-04-21 23:41 | 39.36884 | -112.68103 | 35800 ft | 395 kts | 205° |
| 2026-04-21 23:41 | 39.34381 | -112.69562 | 36032 ft | 394 kts | 205° |
| 2026-04-21 23:41 | 39.31883 | -112.71018 | 36257 ft | 394 kts | 205° |
| 2026-04-21 23:42 | 39.29382 | -112.72473 | 36488 ft | 394 kts | 205° |
| 2026-04-21 23:42 | 39.26886 | -112.73924 | 36688 ft | 393 kts | 205° |
| 2026-04-21 23:42 | 39.24393 | -112.75373 | 36918 ft | 393 kts | 205° |
| 2026-04-21 23:42 | 39.21935 | -112.76800 | 37114 ft | 392 kts | 205° |
| 2026-04-21 23:43 | 39.19445 | -112.78246 | 37331 ft | 392 kts | 205° |
| 2026-04-21 23:43 | 39.16961 | -112.79686 | 37601 ft | 390 kts | 205° |
| 2026-04-21 23:43 | 39.14489 | -112.81118 | 37746 ft | 388 kts | 205° |
| 2026-04-21 23:43 | 39.12029 | -112.82543 | 37755 ft | 388 kts | 205° |
| 2026-04-21 23:44 | 39.07111 | -112.85389 | 37760 ft | 388 kts | 205° |
| 2026-04-21 23:44 | 39.02186 | -112.88239 | 37755 ft | 388 kts | 205° |
| 2026-04-21 23:45 | 38.94813 | -112.92481 | 37761 ft | 387 kts | 205° |
| 2026-04-21 23:46 | 38.89889 | -112.95314 | 37770 ft | 387 kts | 205° |
| 2026-04-21 23:46 | 38.84968 | -112.98138 | 37767 ft | 388 kts | 205° |
| 2026-04-21 23:47 | 38.80044 | -113.00959 | 37768 ft | 387 kts | 205° |
| 2026-04-21 23:47 | 38.75102 | -113.03789 | 37771 ft | 391 kts | 205° |
| 2026-04-21 23:48 | 38.70142 | -113.06627 | 37782 ft | 390 kts | 205° |
| 2026-04-21 23:48 | 38.65184 | -113.09455 | 37848 ft | 390 kts | 205° |
| 2026-04-21 23:49 | 38.60230 | -113.12277 | 37869 ft | 387 kts | 205° |
| 2026-04-21 23:49 | 38.55326 | -113.15068 | 37882 ft | 387 kts | 205° |
| 2026-04-21 23:50 | 38.50377 | -113.17879 | 37894 ft | 391 kts | 205° |
| 2026-04-21 23:50 | 38.45411 | -113.20698 | 37889 ft | 390 kts | 205° |
| 2026-04-21 23:51 | 38.40451 | -113.23508 | 37880 ft | 390 kts | 205° |
| 2026-04-21 23:51 | 38.35486 | -113.26316 | 37862 ft | 391 kts | 205° |
| 2026-04-21 23:52 | 38.30519 | -113.29122 | 37844 ft | 390 kts | 205° |
| 2026-04-21 23:52 | 38.25552 | -113.31924 | 37827 ft | 390 kts | 205° |
| 2026-04-21 23:53 | 38.20618 | -113.34701 | 37803 ft | 390 kts | 205° |
| 2026-04-21 23:53 | 38.15655 | -113.37492 | 37798 ft | 390 kts | 205° |
| 2026-04-21 23:54 | 38.10688 | -113.40280 | 37803 ft | 390 kts | 205° |
| 2026-04-21 23:54 | 38.05721 | -113.43065 | 37837 ft | 390 kts | 205° |
| 2026-04-21 23:55 | 38.00843 | -113.45793 | 37806 ft | 378 kts | 206° |
| 2026-04-21 23:55 | 37.95996 | -113.48507 | 37809 ft | 383 kts | 206° |
| 2026-04-21 23:56 | 37.91053 | -113.51006 | 37809 ft | 383 kts | 201° |
| 2026-04-21 23:56 | 37.86009 | -113.53183 | 37814 ft | 383 kts | 201° |
| 2026-04-21 23:57 | 37.80968 | -113.55378 | 37794 ft | 383 kts | 202° |
| 2026-04-21 23:57 | 37.75935 | -113.57567 | 37819 ft | 383 kts | 202° |
| 2026-04-21 23:58 | 37.70901 | -113.59753 | 37820 ft | 383 kts | 202° |
| 2026-04-21 23:58 | 37.65866 | -113.61935 | 37825 ft | 383 kts | 202° |
| 2026-04-21 23:59 | 37.60830 | -113.64114 | 37822 ft | 382 kts | 202° |
| 2026-04-21 23:59 | 37.55794 | -113.66290 | 37822 ft | 384 kts | 202° |
| 2026-04-22 00:00 | 37.50719 | -113.68480 | 37821 ft | 385 kts | 202° |
| 2026-04-22 00:00 | 37.45664 | -113.70658 | 37823 ft | 385 kts | 202° |
| 2026-04-22 00:01 | 37.40598 | -113.72842 | 37821 ft | 385 kts | 202° |
| 2026-04-22 00:01 | 37.35534 | -113.75016 | 37860 ft | 385 kts | 202° |
| 2026-04-22 00:02 | 37.30513 | -113.77166 | 37813 ft | 375 kts | 202° |
| 2026-04-22 00:02 | 37.25551 | -113.79292 | 37817 ft | 379 kts | 202° |
| 2026-04-22 00:03 | 37.20565 | -113.81427 | 37823 ft | 378 kts | 202° |
| 2026-04-22 00:03 | 37.15617 | -113.83540 | 37821 ft | 377 kts | 202° |
| 2026-04-22 00:04 | 37.10662 | -113.85653 | 37826 ft | 378 kts | 202° |
| 2026-04-22 00:04 | 37.05657 | -113.87783 | 37809 ft | 380 kts | 202° |
| 2026-04-22 00:05 | 37.00649 | -113.89915 | 37807 ft | 380 kts | 202° |
| 2026-04-22 00:05 | 36.95639 | -113.92045 | 37800 ft | 380 kts | 202° |
| 2026-04-22 00:06 | 36.90629 | -113.94171 | 37794 ft | 380 kts | 202° |
| 2026-04-22 00:06 | 36.85620 | -113.96293 | 37795 ft | 380 kts | 202° |
| 2026-04-22 00:07 | 36.80589 | -113.98421 | 37794 ft | 384 kts | 203° |
| 2026-04-22 00:07 | 36.75536 | -114.00557 | 37779 ft | 383 kts | 203° |
| 2026-04-22 00:08 | 36.70487 | -114.02687 | 37781 ft | 384 kts | 203° |
| 2026-04-22 00:08 | 36.65423 | -114.04821 | 37774 ft | 383 kts | 203° |
| 2026-04-22 00:09 | 36.60380 | -114.06942 | 37822 ft | 384 kts | 203° |
| 2026-04-22 00:09 | 36.55314 | -114.09066 | 37787 ft | 383 kts | 203° |
| 2026-04-22 00:10 | 36.50272 | -114.11185 | 37776 ft | 382 kts | 203° |
| 2026-04-22 00:10 | 36.45225 | -114.13301 | 37763 ft | 383 kts | 203° |
| 2026-04-22 00:11 | 36.40174 | -114.15415 | 37761 ft | 383 kts | 203° |
| 2026-04-22 00:11 | 36.35110 | -114.17535 | 37772 ft | 385 kts | 203° |
| 2026-04-22 00:12 | 36.30039 | -114.19648 | 37765 ft | 385 kts | 203° |
| 2026-04-22 00:12 | 36.25821 | -114.21405 | 37768 ft | 385 kts | 203° |
| 2026-04-22 00:13 | 36.20747 | -114.23516 | 37762 ft | 385 kts | 203° |
| 2026-04-22 00:13 | 36.15674 | -114.25627 | 37767 ft | 384 kts | 203° |
| 2026-04-22 00:14 | 36.10755 | -114.28118 | 37757 ft | 380 kts | 212° |
| 2026-04-22 00:14 | 36.06432 | -114.31834 | 37765 ft | 379 kts | 223° |
| 2026-04-22 00:15 | 36.02802 | -114.36542 | 37755 ft | 378 kts | 229° |
| 2026-04-22 00:15 | 35.99319 | -114.41394 | 37743 ft | 377 kts | 229° |
| 2026-04-22 00:16 | 35.95830 | -114.46221 | 37768 ft | 378 kts | 229° |
| 2026-04-22 00:16 | 35.92289 | -114.51117 | 37784 ft | 387 kts | 229° |
| 2026-04-22 00:17 | 35.88716 | -114.56049 | 37786 ft | 388 kts | 229° |
| 2026-04-22 00:17 | 35.85120 | -114.61006 | 37747 ft | 388 kts | 229° |
| 2026-04-22 00:18 | 35.81519 | -114.65962 | 37816 ft | 388 kts | 229° |
| 2026-04-22 00:18 | 35.77913 | -114.70914 | 37806 ft | 388 kts | 229° |
| 2026-04-22 00:19 | 35.74304 | -114.75873 | 37821 ft | 389 kts | 229° |
| 2026-04-22 00:19 | 35.70696 | -114.80815 | 37852 ft | 388 kts | 229° |
| 2026-04-22 00:20 | 35.67089 | -114.85753 | 37850 ft | 388 kts | 229° |
| 2026-04-22 00:20 | 35.63478 | -114.90686 | 37855 ft | 388 kts | 229° |
| 2026-04-22 00:21 | 35.59865 | -114.95614 | 37841 ft | 388 kts | 229° |
| 2026-04-22 00:21 | 35.56256 | -115.00531 | 37839 ft | 387 kts | 228° |
| 2026-04-22 00:22 | 35.52656 | -115.05462 | 37862 ft | 388 kts | 230° |
| 2026-04-22 00:22 | 35.49514 | -115.10830 | 37863 ft | 388 kts | 238° |
| 2026-04-22 00:23 | 35.46898 | -115.16616 | 37877 ft | 388 kts | 240° |
| 2026-04-22 00:23 | 35.44294 | -115.22421 | 37884 ft | 389 kts | 240° |
| 2026-04-22 00:24 | 35.41684 | -115.28223 | 37898 ft | 389 kts | 240° |
| 2026-04-22 00:24 | 35.39067 | -115.34029 | 37925 ft | 389 kts | 240° |
| 2026-04-22 00:25 | 35.36447 | -115.39829 | 37940 ft | 388 kts | 240° |
| 2026-04-22 00:25 | 35.33823 | -115.45600 | 37932 ft | 387 kts | 237° |
| 2026-04-22 00:25 | 35.32164 | -115.48172 | 37925 ft | 387 kts | 225° |
| 2026-04-22 00:26 | 35.30173 | -115.50413 | 37922 ft | 388 kts | 224° |
| 2026-04-22 00:26 | 35.26176 | -115.54844 | 37931 ft | 388 kts | 224° |
| 2026-04-22 00:27 | 35.22185 | -115.59281 | 37935 ft | 388 kts | 224° |
| 2026-04-22 00:27 | 35.18352 | -115.63906 | 37936 ft | 388 kts | 222° |
| 2026-04-22 00:28 | 35.14068 | -115.67901 | 37780 ft | 384 kts | 220° |
| 2026-04-22 00:28 | 35.11919 | -115.69838 | 37509 ft | 384 kts | 220° |
| 2026-04-22 00:28 | 35.09783 | -115.71808 | 37240 ft | 386 kts | 221° |
| 2026-04-22 00:28 | 35.07653 | -115.73809 | 36962 ft | 386 kts | 221° |
| 2026-04-22 00:29 | 35.05529 | -115.75817 | 36700 ft | 386 kts | 221° |
| 2026-04-22 00:29 | 35.03413 | -115.77821 | 36432 ft | 385 kts | 221° |
| 2026-04-22 00:29 | 35.01297 | -115.79827 | 36177 ft | 385 kts | 221° |
| 2026-04-22 00:29 | 34.99186 | -115.81828 | 35929 ft | 385 kts | 221° |
| 2026-04-22 00:30 | 34.97073 | -115.83829 | 35681 ft | 385 kts | 221° |
| 2026-04-22 00:30 | 34.94962 | -115.85828 | 35434 ft | 384 kts | 221° |
| 2026-04-22 00:30 | 34.92851 | -115.87825 | 35191 ft | 384 kts | 221° |
| 2026-04-22 00:30 | 34.90740 | -115.89821 | 34934 ft | 384 kts | 221° |
| 2026-04-22 00:31 | 34.88631 | -115.91814 | 34693 ft | 384 kts | 221° |
| 2026-04-22 00:31 | 34.86524 | -115.93802 | 34452 ft | 382 kts | 221° |
| 2026-04-22 00:31 | 34.84428 | -115.95779 | 34230 ft | 382 kts | 221° |
| 2026-04-22 00:31 | 34.82324 | -115.97764 | 34000 ft | 383 kts | 221° |
| 2026-04-22 00:32 | 34.80223 | -115.99745 | 33717 ft | 382 kts | 221° |
| 2026-04-22 00:32 | 34.78139 | -116.01739 | 33446 ft | 381 kts | 224° |
| 2026-04-22 00:32 | 34.76189 | -116.03930 | 33185 ft | 382 kts | 228° |
| 2026-04-22 00:32 | 34.74358 | -116.06276 | 32922 ft | 383 kts | 229° |
| 2026-04-22 00:33 | 34.72520 | -116.08629 | 32664 ft | 384 kts | 229° |
| 2026-04-22 00:33 | 34.70681 | -116.10976 | 32388 ft | 383 kts | 228° |
| 2026-04-22 00:33 | 34.68841 | -116.13319 | 31855 ft | 383 kts | 228° |
| 2026-04-22 00:33 | 34.67023 | -116.15632 | 31078 ft | 385 kts | 228° |
| 2026-04-22 00:34 | 34.65144 | -116.18021 | 30255 ft | 385 kts | 228° |
| 2026-04-22 00:34 | 34.63325 | -116.20331 | 29598 ft | 381 kts | 228° |
| 2026-04-22 00:34 | 34.61504 | -116.22640 | 28890 ft | 378 kts | 228° |
| 2026-04-22 00:34 | 34.59692 | -116.24938 | 28166 ft | 375 kts | 228° |
| 2026-04-22 00:35 | 34.57895 | -116.27217 | 27388 ft | 373 kts | 228° |
| 2026-04-22 00:35 | 34.56085 | -116.29509 | 26374 ft | 379 kts | 228° |
| 2026-04-22 00:35 | 34.54267 | -116.31812 | 25678 ft | 376 kts | 228° |
| 2026-04-22 00:35 | 34.52462 | -116.34096 | 25041 ft | 374 kts | 228° |
| 2026-04-22 00:36 | 34.50668 | -116.36365 | 24353 ft | 372 kts | 228° |
| 2026-04-22 00:36 | 34.48882 | -116.38621 | 23749 ft | 370 kts | 228° |
| 2026-04-22 00:36 | 34.47104 | -116.40866 | 22960 ft | 369 kts | 228° |
| 2026-04-22 00:36 | 34.45323 | -116.43113 | 22197 ft | 368 kts | 228° |
| 2026-04-22 00:37 | 34.43566 | -116.45348 | 21567 ft | 364 kts | 230° |
| 2026-04-22 00:37 | 34.41981 | -116.47728 | 20922 ft | 361 kts | 235° |
| 2026-04-22 00:37 | 34.40637 | -116.50275 | 20287 ft | 358 kts | 241° |
| 2026-04-22 00:37 | 34.39509 | -116.52953 | 19664 ft | 356 kts | 244° |
| 2026-04-22 00:38 | 34.38419 | -116.55634 | 19056 ft | 353 kts | 244° |
| 2026-04-22 00:38 | 34.37336 | -116.58275 | 18777 ft | 347 kts | 244° |
| 2026-04-22 00:38 | 34.36258 | -116.60893 | 18842 ft | 351 kts | 244° |
| 2026-04-22 00:38 | 34.35165 | -116.63543 | 18862 ft | 352 kts | 244° |
| 2026-04-22 00:39 | 34.34072 | -116.66190 | 18862 ft | 351 kts | 244° |
| 2026-04-22 00:39 | 34.32981 | -116.68834 | 18865 ft | 352 kts | 244° |
| 2026-04-22 00:39 | 34.31905 | -116.71494 | 18859 ft | 351 kts | 244° |
| 2026-04-22 00:39 | 34.30847 | -116.74139 | 18862 ft | 348 kts | 245° |
| 2026-04-22 00:40 | 34.29791 | -116.76783 | 18885 ft | 352 kts | 244° |
| 2026-04-22 00:40 | 34.28723 | -116.79448 | 18885 ft | 352 kts | 244° |
| 2026-04-22 00:40 | 34.27655 | -116.82104 | 18885 ft | 351 kts | 245° |
| 2026-04-22 00:40 | 34.26588 | -116.84756 | 18887 ft | 351 kts | 244° |
| 2026-04-22 00:41 | 34.25517 | -116.87408 | 18938 ft | 350 kts | 244° |
| 2026-04-22 00:41 | 34.24464 | -116.90015 | 18909 ft | 341 kts | 244° |
| 2026-04-22 00:41 | 34.23420 | -116.92595 | 18906 ft | 345 kts | 244° |
| 2026-04-22 00:41 | 34.22361 | -116.95209 | 18915 ft | 345 kts | 244° |
| 2026-04-22 00:42 | 34.21321 | -116.97822 | 18898 ft | 345 kts | 246° |
| 2026-04-22 00:42 | 34.20486 | -117.00548 | 18759 ft | 347 kts | 251° |
| 2026-04-22 00:42 | 34.19746 | -117.03319 | 18520 ft | 345 kts | 251° |
| 2026-04-22 00:42 | 34.19008 | -117.06069 | 18301 ft | 344 kts | 251° |
| 2026-04-22 00:43 | 34.18271 | -117.08807 | 18027 ft | 340 kts | 251° |
| 2026-04-22 00:43 | 34.17533 | -117.11513 | 17783 ft | 340 kts | 251° |
| 2026-04-22 00:43 | 34.16798 | -117.14223 | 17521 ft | 340 kts | 251° |
| 2026-04-22 00:43 | 34.16066 | -117.16928 | 17263 ft | 338 kts | 250° |
| 2026-04-22 00:44 | 34.15330 | -117.19617 | 17082 ft | 337 kts | 250° |
| 2026-04-22 00:44 | 34.14605 | -117.22258 | 16834 ft | 335 kts | 250° |
| 2026-04-22 00:44 | 34.13856 | -117.24946 | 16578 ft | 334 kts | 250° |
| 2026-04-22 00:44 | 34.13135 | -117.27568 | 16331 ft | 333 kts | 251° |
| 2026-04-22 00:45 | 34.12439 | -117.30234 | 16082 ft | 333 kts | 251° |
| 2026-04-22 00:45 | 34.11754 | -117.32897 | 15836 ft | 332 kts | 251° |
| 2026-04-22 00:45 | 34.11070 | -117.35546 | 15597 ft | 331 kts | 251° |
| 2026-04-22 00:45 | 34.10381 | -117.38193 | 15346 ft | 330 kts | 251° |
| 2026-04-22 00:46 | 34.09692 | -117.40830 | 15104 ft | 329 kts | 251° |
| 2026-04-22 00:46 | 34.09002 | -117.43460 | 14852 ft | 328 kts | 251° |
| 2026-04-22 00:46 | 34.08312 | -117.46083 | 14623 ft | 327 kts | 251° |
| 2026-04-22 00:46 | 34.07625 | -117.48692 | 14403 ft | 325 kts | 251° |
| 2026-04-22 00:47 | 34.06944 | -117.51282 | 14173 ft | 323 kts | 251° |
| 2026-04-22 00:47 | 34.06282 | -117.53866 | 13941 ft | 323 kts | 251° |
| 2026-04-22 00:47 | 34.05626 | -117.56454 | 13685 ft | 322 kts | 251° |
| 2026-04-22 00:47 | 34.04970 | -117.59036 | 13422 ft | 321 kts | 251° |
| 2026-04-22 00:48 | 34.04328 | -117.61561 | 13159 ft | 310 kts | 251° |
| 2026-04-22 00:48 | 34.03706 | -117.64003 | 12899 ft | 299 kts | 251° |
| 2026-04-22 00:48 | 34.03103 | -117.66358 | 12644 ft | 289 kts | 251° |
| 2026-04-22 00:48 | 34.02518 | -117.68646 | 12255 ft | 285 kts | 251° |
| 2026-04-22 00:49 | 34.02084 | -117.70995 | 11647 ft | 290 kts | 259° |
| 2026-04-22 00:49 | 34.01855 | -117.73415 | 11142 ft | 291 kts | 260° |
| 2026-04-22 00:49 | 34.01627 | -117.75831 | 10651 ft | 289 kts | 260° |
| 2026-04-22 00:49 | 34.01400 | -117.78190 | 10502 ft | 277 kts | 259° |
| 2026-04-22 00:50 | 34.01184 | -117.80444 | 10389 ft | 265 kts | 259° |
| 2026-04-22 00:50 | 34.00973 | -117.82622 | 10090 ft | 260 kts | 259° |
| 2026-04-22 00:50 | 34.00760 | -117.84789 | 9653 ft | 260 kts | 259° |
| 2026-04-22 00:50 | 34.00545 | -117.86952 | 9207 ft | 260 kts | 259° |
| 2026-04-22 00:51 | 34.00330 | -117.89115 | 8792 ft | 259 kts | 259° |
| 2026-04-22 00:51 | 34.00118 | -117.91266 | 8360 ft | 259 kts | 260° |
| 2026-04-22 00:51 | 33.99906 | -117.93417 | 7969 ft | 257 kts | 260° |
| 2026-04-22 00:51 | 33.99698 | -117.95544 | 7692 ft | 251 kts | 260° |
| 2026-04-22 00:52 | 33.99499 | -117.97586 | 7591 ft | 239 kts | 260° |
| 2026-04-22 00:52 | 33.99312 | -117.99506 | 7481 ft | 224 kts | 260° |
| 2026-04-22 00:52 | 33.99135 | -118.01313 | 7380 ft | 211 kts | 259° |
| 2026-04-22 00:52 | 33.98957 | -118.03084 | 7337 ft | 219 kts | 259° |
| 2026-04-22 00:53 | 33.98767 | -118.04948 | 7313 ft | 227 kts | 259° |
| 2026-04-22 00:53 | 33.98578 | -118.06825 | 7270 ft | 223 kts | 260° |
| 2026-04-22 00:53 | 33.98399 | -118.08639 | 7179 ft | 213 kts | 260° |
| 2026-04-22 00:53 | 33.98229 | -118.10360 | 7032 ft | 203 kts | 259° |
| 2026-04-22 00:54 | 33.98053 | -118.12086 | 6488 ft | 214 kts | 259° |
| 2026-04-22 00:54 | 33.97868 | -118.13922 | 5780 ft | 228 kts | 261° |
| 2026-04-22 00:54 | 33.97681 | -118.15821 | 5410 ft | 226 kts | 261° |
| 2026-04-22 00:54 | 33.97495 | -118.17679 | 5004 ft | 227 kts | 262° |
| 2026-04-22 00:55 | 33.97305 | -118.19568 | 4647 ft | 224 kts | 262° |
| 2026-04-22 00:55 | 33.97118 | -118.21418 | 4323 ft | 221 kts | 262° |
| 2026-04-22 00:55 | 33.96744 | -118.25071 | 3690 ft | 214 kts | 262° |
| 2026-04-22 00:56 | 33.96569 | -118.26779 | 3600 ft | 202 kts | 262° |
| 2026-04-22 00:56 | 33.96400 | -118.28482 | 3220 ft | 205 kts | 263° |
| 2026-04-22 00:56 | 33.96235 | -118.30128 | 3169 ft | 187 kts | 262° |
| 2026-04-22 00:56 | 33.96092 | -118.31558 | 3034 ft | 159 kts | 262° |
| 2026-04-22 00:57 | 33.95965 | -118.32793 | 2881 ft | 138 kts | 263° |
| 2026-04-22 00:57 | 33.95853 | -118.33947 | 2436 ft | 141 kts | 263° |
| 2026-04-22 00:57 | 33.95739 | -118.35135 | 1998 ft | 144 kts | 262° |
| 2026-04-22 00:57 | 33.95638 | -118.36338 | 1542 ft | 146 kts | 263° |
| 2026-04-22 00:58 | 33.95527 | -118.37569 | 1075 ft | 146 kts | 262° |
| 2026-04-22 00:58 | 33.95348 | -118.38757 | 638 ft | 146 kts | 263° |
| 2026-04-22 00:58 | 33.95241 | -118.39931 | 263 ft | 134 kts | 263° |
| 2026-04-22 00:58 | 33.95159 | -118.40636 | 141 ft | 123 kts | 263° |
| 2026-04-22 00:59 | 33.95076 | -118.41460 | 123 ft | 48 kts | 263° |
| 2026-04-22 00:59 | 33.95046 | -118.41717 | 121 ft | 29 kts | 261° |
| 2026-04-22 00:59 | 33.95019 | -118.41955 | 121 ft | 28 kts | 265° |
| 2026-04-22 00:59 | 33.95003 | -118.42176 | 124 ft | 36 kts | 264° |
| 2026-04-22 01:00 | 33.94943 | -118.42513 | 123 ft | 40 kts | 246° |
| 2026-04-22 01:00 | 33.94864 | -118.42664 | 124 ft | 4 kts | 228° |
| 2026-04-22 01:00 | 33.94835 | -118.42698 | 124 ft | 7 kts | 222° |
| 2026-04-22 01:00 | 33.94814 | -118.42719 | 123 ft | 3 kts | 219° |
| 2026-04-22 01:01 | 33.94698 | -118.42779 | 123 ft | 8 kts | 186° |
| 2026-04-22 01:01 | 33.94634 | -118.42740 | 122 ft | 23 kts | 121° |
| 2026-04-22 01:01 | 33.94648 | -118.42588 | 124 ft | 21 kts | 84° |
| 2026-04-22 01:01 | 33.94669 | -118.42360 | 125 ft | 34 kts | 82° |
| 2026-04-22 01:02 | 33.94702 | -118.42037 | 123 ft | 43 kts | 83° |
| 2026-04-22 01:02 | 33.94742 | -118.41655 | 125 ft | 48 kts | 83° |
| 2026-04-22 01:02 | 33.94781 | -118.41379 | 125 ft | 32 kts | 76° |
| 2026-04-22 01:02 | 33.94815 | -118.41091 | 125 ft | 37 kts | 83° |
| 2026-04-22 01:03 | 33.94844 | -118.40797 | 125 ft | 36 kts | 83° |
| 2026-04-22 01:03 | 33.94857 | -118.40650 | 125 ft | 8 kts | 90° |
| 2026-04-22 01:03 | 33.94803 | -118.40594 | 123 ft | 15 kts | 165° |
| 2026-04-22 01:03 | 33.94677 | -118.40577 | 124 ft | 16 kts | 176° |
| 2026-04-22 01:04 | 33.94655 | -118.40579 | 124 ft | 5 kts | 205° |
| 2026-04-22 01:04 | 33.94641 | -118.40628 | 125 ft | 8 kts | 274° |
| 2026-04-22 01:04 | 33.94643 | -118.40640 | 125 ft | 0 kts | 282° |